»·PEaware :: AAL2178 MMUN-KMIA

AAL2178 :: MMUN-KMIA

FLIGHT INFORMATION

Flight Status: Arrived
Operator:
American Airlines
More flights by this operator :: More flights under this callsign
Pilot: Drew L. (13237)
Aircraft: BOEING 737-800
(B738)
More flights by this aircraft type
Origin: MMUN Cancun Intl
Mexico
Destination: KMIA Miami Intl
United States
More flights between these airports :: More routes between these airports
Route: URTOK UG765 MAXIM EADEN CURSO5
File this flight plan on PilotEdge
Remarks: PBN / A1B1C1D1S1S2 DOF / 180213 REG / N806SB EET / MUFH0012 KZMA0043 OPR / AAL PER / C TALT / MMMD RMK / TCAS SIMBRIEF
Altitude:
(Current/Filed)
37,000ft
Speed:
(Current/Filed)
450kts
Departed: 12-Feb-18 08:02 PM
Arrived: 12-Feb-18 09:17 PM
Distance/Time
Traveled:
462nm/1:15
Distance/Time
To Go:
Arrived

Flight Plot

Page will automatically refresh every two minutes.

Flight plan parsing failed; only flown route is shown


Map Options




Map Legend


Flown Route
Filed Route
Departure Airport
Arrival Airport
Navaid (VOR, NDB)
Fix

Horizontal Profiles

Position Reports

Time Latitude Longitude Heading Altitude Ground
Speed
12-Feb-18 19:45 21.036739 -86.867250 303 28ft 0kts
12-Feb-18 19:46 21.036739 -86.867250 303 28ft 0kts
12-Feb-18 19:47 21.036739 -86.867250 303 28ft 0kts
12-Feb-18 19:48 21.036739 -86.867250 303 28ft 0kts
12-Feb-18 19:49 21.036739 -86.867250 303 28ft 0kts
12-Feb-18 19:50 21.036739 -86.867250 303 28ft 0kts
12-Feb-18 19:51 21.036739 -86.867250 303 28ft 0kts
12-Feb-18 19:52 21.036739 -86.867250 303 28ft 0kts
12-Feb-18 19:53 21.036739 -86.867250 303 28ft 0kts
12-Feb-18 19:54 21.036739 -86.867250 303 28ft 0kts
12-Feb-18 19:55 21.036739 -86.867250 303 28ft 0kts
12-Feb-18 19:56 21.036739 -86.867250 303 28ft 0kts
12-Feb-18 19:57 21.036739 -86.867250 303 28ft 0kts
12-Feb-18 19:58 21.036725 -86.867228 303 29ft 2kts
12-Feb-18 19:59 21.036542 -86.866644 264 29ft 2kts
12-Feb-18 20:00 21.036657 -86.866159 216 29ft 0kts
12-Feb-18 20:01 21.036708 -86.866125 213 28ft 0kts
12-Feb-18 20:02 21.036584 -86.866213 213 28ft 6kts
12-Feb-18 20:03 21.034244 -86.867935 232 28ft 6kts
12-Feb-18 20:04 21.035204 -86.871264 234 28ft 8kts
12-Feb-18 20:05 21.037663 -86.875655 303 28ft 32kts
12-Feb-18 20:06 21.041842 -86.882280 304 28ft 20kts
12-Feb-18 20:07 21.040805 -86.883678 150 29ft 3kts
12-Feb-18 20:08 21.040610 -86.883427 124 28ft 0kts
12-Feb-18 20:09 21.031930 -86.869559 124 36ft 166kts
12-Feb-18 20:10 20.998077 -86.831641 169 2737ft 196kts
12-Feb-18 20:11 20.968000 -86.872967 260 5612ft 206kts
12-Feb-18 20:12 20.928846 -86.879458 104 8249ft 184kts
12-Feb-18 20:13 20.948395 -86.824020 63 10026ft 240kts
12-Feb-18 20:14 20.984818 -86.751920 62 11749ft 311kts
12-Feb-18 20:15 21.027010 -86.668422 62 14719ft 332kts
12-Feb-18 20:16 21.072341 -86.578562 63 17364ft 353kts
12-Feb-18 20:17 21.119843 -86.484233 62 19902ft 368kts
12-Feb-18 20:18 21.169196 -86.386057 62 22226ft 382kts
12-Feb-18 20:19 21.219976 -86.284868 63 24313ft 394kts
12-Feb-18 20:20 21.272799 -86.179403 63 26060ft 411kts
12-Feb-18 20:21 21.327809 -86.069331 62 27690ft 427kts
12-Feb-18 20:22 21.384573 -85.955513 61 29259ft 439kts
12-Feb-18 20:23 21.441477 -85.841226 60 31221ft 435kts
12-Feb-18 20:24 21.499696 -85.728507 50 32965ft 430kts
12-Feb-18 20:25 21.576185 -85.630849 48 34458ft 427kts
12-Feb-18 20:26 21.652356 -85.533073 48 35633ft 429kts
12-Feb-18 20:27 21.728880 -85.434706 47 36670ft 432kts
12-Feb-18 20:28 21.805932 -85.335732 47 37241ft 442kts
12-Feb-18 20:29 21.887003 -85.231711 47 37246ft 466kts
12-Feb-18 20:30 21.971677 -85.123081 47 37236ft 479kts
12-Feb-18 20:31 22.057210 -85.013495 47 37238ft 478kts
12-Feb-18 20:32 22.142342 -84.903896 47 37237ft 478kts
12-Feb-18 20:33 22.227381 -84.794420 47 37238ft 478kts
12-Feb-18 20:34 22.312668 -84.684707 47 37239ft 478kts
12-Feb-18 20:35 22.398058 -84.574955 47 37240ft 478kts
12-Feb-18 20:36 22.483384 -84.465373 47 37295ft 477kts
12-Feb-18 20:37 22.568722 -84.355872 47 37297ft 477kts
12-Feb-18 20:38 22.653815 -84.246819 47 37289ft 477kts
12-Feb-18 20:39 22.739356 -84.137250 47 37290ft 477kts
12-Feb-18 20:40 22.824675 -84.028136 47 37291ft 477kts
12-Feb-18 20:41 22.909801 -83.918336 47 37292ft 477kts
12-Feb-18 20:42 22.995040 -83.808372 47 37293ft 477kts
12-Feb-18 20:43 23.080243 -83.698534 47 37295ft 476kts
12-Feb-18 20:44 23.165390 -83.588861 47 37294ft 476kts
12-Feb-18 20:45 23.250751 -83.479004 47 37295ft 476kts
12-Feb-18 20:46 23.336036 -83.369338 47 37296ft 476kts
12-Feb-18 20:47 23.409621 -83.274822 47 37289ft 476kts
12-Feb-18 20:48 23.495014 -83.165202 47 37290ft 476kts
12-Feb-18 20:49 23.580725 -83.055258 47 37291ft 476kts
12-Feb-18 20:50 23.666152 -82.945773 47 37292ft 476kts
12-Feb-18 20:51 23.751796 -82.836102 47 37293ft 475kts
12-Feb-18 20:52 23.837396 -82.726587 47 37324ft 475kts
12-Feb-18 20:53 23.923185 -82.616926 47 37321ft 475kts
12-Feb-18 20:54 24.009027 -82.507396 46 37323ft 475kts
12-Feb-18 20:55 24.095648 -82.398888 46 37323ft 475kts
12-Feb-18 20:56 24.162930 -82.314332 46 37313ft 475kts
12-Feb-18 20:57 24.247841 -82.207647 46 37316ft 475kts
12-Feb-18 20:58 24.319981 -82.117053 46 37317ft 475kts
12-Feb-18 20:59 24.406387 -82.008627 46 37318ft 475kts
12-Feb-18 21:00 24.499426 -81.891947 46 36410ft 428kts
12-Feb-18 21:01 24.565695 -81.823614 35 34793ft 416kts
12-Feb-18 21:02 24.654461 -81.747819 36 32793ft 419kts
12-Feb-18 21:03 24.745752 -81.669061 35 30719ft 427kts
12-Feb-18 21:04 24.839716 -81.587827 36 28587ft 433kts
12-Feb-18 21:05 24.932246 -81.507618 38 26478ft 415kts
12-Feb-18 21:06 25.020340 -81.431088 39 24471ft 395kts
12-Feb-18 21:07 25.104360 -81.357954 39 22558ft 383kts
12-Feb-18 21:08 25.167908 -81.302566 39 21110ft 376kts
12-Feb-18 21:09 25.245622 -81.234724 39 19341ft 369kts
12-Feb-18 21:10 25.322681 -81.167343 39 17585ft 360kts
12-Feb-18 21:11 25.399143 -81.100382 39 15555ft 348kts
12-Feb-18 21:12 25.472908 -81.035666 39 13795ft 335kts
12-Feb-18 21:13 25.531125 -80.962422 65 12227ft 321kts
12-Feb-18 21:14 25.568370 -80.874417 68 10642ft 309kts
12-Feb-18 21:15 25.607108 -80.794241 49 9177ft 288kts
12-Feb-18 21:16 25.658735 -80.731521 48 7769ft 261kts
12-Feb-18 21:17 25.707242 -80.672087 51 6499ft 257kts
12-Feb-18 21:18 25.740741 -80.603397 61 5233ft 254kts
12-Feb-18 21:19 25.773967 -80.536804 61 4010ft 243kts
12-Feb-18 21:20 25.796561 -80.470949 89 2917ft 227kts
12-Feb-18 21:21 25.798610 -80.405349 87 1842ft 197kts
12-Feb-18 21:22 25.800789 -80.352942 87 876ft 150kts
12-Feb-18 21:23 25.802508 -80.311406 87 238ft 140kts
12-Feb-18 21:24 25.802967 -80.282468 136 13ft 24kts
12-Feb-18 21:25 25.799168 -80.280092 159 13ft 11kts
12-Feb-18 21:26 25.797672 -80.279909 177 13ft 0kts

Navigation Log

Ident Type
Flight plan parsing failed, navigation log unavailable